Time;durP1;ratioP1;P1;durP2;ratioP2;P2;SDS_P1;SDS_P2;PMS_P1;PMS_P2;Temp;Humidity;BMP_temperature;BMP_pressure;BME280_temperature;BME280_humidity;BME280_pressure;Samples;Min_cycle;Max_cycle;Signal;HPM_P1;HPM_P2
2023/06/10 00:00:48;;;;;;;14.52;7.68;;;;;;;17.08;69.19;100633.94;4953488;29;20192;-49
2023/06/10 00:03:14;;;;;;;13.55;7.75;;;;;;;17.07;69.24;100633.13;4954643;29;20122;-47
2023/06/10 00:05:46;;;;;;;12.57;6.50;;;;;;;17.03;69.26;100641.47;4954328;29;20412;-46
2023/06/10 00:08:19;;;;;;;15.18;7.53;;;;;;;16.96;69.46;100638.66;4953543;28;20043;-45
2023/06/10 00:10:46;;;;;;;11.02;6.78;;;;;;;16.93;69.50;100630.25;4953235;29;20039;-44
2023/06/10 00:13:13;;;;;;;14.85;8.27;;;;;;;16.88;69.74;100630.59;4953260;29;20050;-44
2023/06/10 00:15:39;;;;;;;20.52;8.25;;;;;;;16.79;69.93;100628.16;4951753;28;20489;-45
2023/06/10 00:18:09;;;;;;;15.40;7.43;;;;;;;16.76;70.04;100626.13;4930716;29;20099;-44
2023/06/10 00:20:37;;;;;;;13.73;8.10;;;;;;;16.76;70.20;100628.16;4952003;28;20047;-45
2023/06/10 00:23:06;;;;;;;12.80;8.60;;;;;;;16.77;70.23;100633.34;4963956;28;20054;-44
2023/06/10 00:25:33;;;;;;;14.90;7.95;;;;;;;16.76;70.39;100630.94;4953843;29;20449;-44
2023/06/10 00:28:00;;;;;;;14.70;8.02;;;;;;;16.75;70.47;100623.75;4952237;28;20051;-45
2023/06/10 00:30:27;;;;;;;22.35;8.10;;;;;;;16.73;70.63;100623.34;4953364;28;20533;-44
2023/06/10 00:32:53;;;;;;;23.55;9.82;;;;;;;16.69;70.87;100628.88;4954028;29;20239;-44
2023/06/10 00:35:20;;;;;;;15.23;7.57;;;;;;;16.68;70.82;100632.09;4950134;29;20438;-44
2023/06/10 00:37:47;;;;;;;12.95;7.65;;;;;;;16.68;70.92;100632.88;4952118;28;20122;-44
2023/06/10 00:40:14;;;;;;;15.20;8.20;;;;;;;16.65;71.03;100632.88;4951302;28;20130;-44
2023/06/10 00:42:41;;;;;;;17.17;8.23;;;;;;;16.63;71.16;100635.22;4952459;29;20070;-44
2023/06/10 00:45:08;;;;;;;17.38;8.68;;;;;;;16.60;71.10;100620.03;4953514;29;20091;-45
2023/06/10 00:47:35;;;;;;;17.10;7.90;;;;;;;16.58;71.32;100621.59;4953098;28;20059;-45
2023/06/10 00:50:03;;;;;;;16.35;8.43;;;;;;;16.54;71.63;100626.38;4953819;29;20046;-44
2023/06/10 00:52:30;;;;;;;20.65;8.68;;;;;;;16.51;71.57;100621.53;4953201;29;20051;-46
2023/06/10 00:54:59;;;;;;;13.15;7.57;;;;;;;16.48;71.73;100628.72;4953529;28;20047;-45
2023/06/10 00:57:26;;;;;;;17.25;8.30;;;;;;;16.45;71.68;100624.69;4952613;28;20494;-44
2023/06/10 00:59:54;;;;;;;16.08;8.38;;;;;;;16.42;71.98;100631.06;4953334;29;20053;-44
2023/06/10 01:02:21;;;;;;;20.02;9.75;;;;;;;16.35;72.05;100617.03;4953547;29;20714;-45
2023/06/10 01:04:49;;;;;;;19.25;9.55;;;;;;;16.32;72.17;100608.63;4953608;29;20450;-44
2023/06/10 01:07:18;;;;;;;23.00;10.48;;;;;;;16.33;72.33;100604.66;4952799;28;20042;-44
2023/06/10 01:10:04;;;;;;;14.40;9.38;;;;;;;16.30;72.52;100617.41;4949651;29;20549;-46
2023/06/10 01:12:37;;;;;;;14.75;10.13;;;;;;;16.29;72.46;100610.19;4953012;29;20054;-45
2023/06/10 01:15:05;;;;;;;16.95;8.80;;;;;;;16.26;72.69;100610.97;4953373;29;20336;-44
2023/06/10 01:17:32;;;;;;;19.65;9.32;;;;;;;16.25;72.93;100617.75;4952923;28;20082;-45
2023/06/10 01:19:59;;;;;;;19.98;9.95;;;;;;;16.23;72.90;100614.53;4953084;29;20055;-44
2023/06/10 01:22:36;;;;;;;22.45;10.80;;;;;;;16.22;73.10;100635.28;4928392;29;20564;-48
2023/06/10 01:25:03;;;;;;;13.85;9.63;;;;;;;16.24;72.96;100621.72;4943795;29;20043;-46
2023/06/10 01:27:39;;;;;;;15.15;10.05;;;;;;;16.23;72.90;100617.31;4948095;28;20168;-44
2023/06/10 01:30:15;;;;;;;24.27;11.25;;;;;;;16.20;73.14;100612.50;4941710;28;20059;-45
2023/06/10 01:32:49;;;;;;;17.05;9.85;;;;;;;16.19;73.03;100608.13;4963137;28;20047;-45
2023/06/10 01:35:19;;;;;;;21.50;10.60;;;;;;;16.14;73.26;100602.91;4953621;28;20079;-45
2023/06/10 01:37:47;;;;;;;28.85;11.95;;;;;;;16.11;73.42;100612.03;4929875;28;20075;-48
2023/06/10 01:40:15;;;;;;;24.38;9.93;;;;;;;16.12;73.44;100601.69;4924973;28;20066;-47
2023/06/10 01:42:42;;;;;;;17.75;9.98;;;;;;;16.13;73.69;100597.69;4925903;28;20051;-47
2023/06/10 01:45:09;;;;;;;19.73;10.18;;;;;;;16.10;73.77;100593.66;4924606;28;20485;-45
2023/06/10 01:47:37;;;;;;;19.67;10.00;;;;;;;16.09;73.84;100589.28;4925753;28;20047;-48
2023/06/10 01:50:04;;;;;;;20.85;10.55;;;;;;;16.08;74.03;100593.25;4927312;28;20055;-50
2023/06/10 01:52:32;;;;;;;21.33;9.98;;;;;;;16.08;74.22;100593.25;4932894;28;20059;-45
2023/06/10 01:54:58;;;;;;;20.90;10.07;;;;;;;16.09;74.13;100597.69;4953141;29;20051;-45
2023/06/10 01:57:27;;;;;;;22.25;12.05;;;;;;;16.07;74.34;100588.84;4951926;28;20047;-45
2023/06/10 01:59:54;;;;;;;16.30;11.27;;;;;;;16.08;74.56;100590.47;4951804;29;20035;-47
2023/06/10 02:02:22;;;;;;;26.10;10.93;;;;;;;16.05;74.60;100594.03;4935317;28;20059;-45
2023/06/10 02:04:49;;;;;;;22.13;10.90;;;;;;;16.03;74.93;100590.84;4952926;29;20386;-47
2023/06/10 02:07:16;;;;;;;23.55;12.85;;;;;;;16.00;75.01;100579.63;4952646;28;20050;-45
2023/06/10 02:09:42;;;;;;;26.60;12.10;;;;;;;16.01;75.22;100589.63;4943841;29;20099;-45
2023/06/10 02:12:10;;;;;;;23.20;10.80;;;;;;;15.99;75.35;100583.63;4956513;29;20059;-47
2023/06/10 02:14:36;;;;;;;26.73;14.93;;;;;;;15.93;75.37;100585.97;4947387;29;20681;-45
2023/06/10 02:17:04;;;;;;;21.10;11.38;;;;;;;15.88;75.57;100589.09;4955060;28;20051;-45
2023/06/10 02:19:31;;;;;;;27.35;11.23;;;;;;;15.84;75.82;100589.06;4955870;29;20390;-45
2023/06/10 02:21:57;;;;;;;25.80;12.32;;;;;;;15.85;76.12;100578.69;4956315;29;20371;-45
2023/06/10 02:24:24;;;;;;;24.45;11.10;;;;;;;15.82;76.08;100585.84;4956597;29;20118;-47
2023/06/10 02:26:51;;;;;;;21.80;11.63;;;;;;;15.80;76.18;100582.66;4955008;28;20070;-46
2023/06/10 02:29:18;;;;;;;26.98;11.90;;;;;;;15.80;76.38;100587.44;4951774;28;20043;-45
2023/06/10 02:31:45;;;;;;;22.95;12.23;;;;;;;15.79;76.41;100583.84;4953944;29;20051;-46
2023/06/10 02:34:12;;;;;;;26.13;12.35;;;;;;;15.79;76.60;100580.22;4948428;29;20163;-47
2023/06/10 02:36:38;;;;;;;22.30;12.20;;;;;;;15.81;76.75;100578.66;4954685;29;20047;-45
2023/06/10 02:39:05;;;;;;;18.80;12.05;;;;;;;15.83;76.55;100579.06;4932205;29;20051;-45
2023/06/10 02:41:32;;;;;;;26.92;11.50;;;;;;;15.84;76.62;100582.66;4953809;29;20110;-45
2023/06/10 02:43:59;;;;;;;19.77;11.48;;;;;;;15.83;77.01;100576.28;4952735;29;20109;-45
2023/06/10 02:46:25;;;;;;;28.30;14.18;;;;;;;15.81;76.88;100578.66;4935601;29;20087;-45
2023/06/10 02:48:52;;;;;;;24.80;11.27;;;;;;;15.81;77.17;100580.66;4954641;28;20139;-45
2023/06/10 02:51:19;;;;;;;22.00;10.73;;;;;;;15.80;77.15;100582.66;4947152;28;20047;-45
2023/06/10 02:53:47;;;;;;;27.05;14.02;;;;;;;15.82;77.00;100590.63;4953278;29;20055;-45
2023/06/10 02:56:16;;;;;;;22.20;11.20;;;;;;;15.83;77.33;100584.66;4954570;29;20512;-45
2023/06/10 02:58:43;;;;;;;23.63;12.35;;;;;;;15.82;77.30;100588.66;4951567;28;20055;-45
2023/06/10 03:01:10;;;;;;;21.63;12.25;;;;;;;15.83;77.41;100583.88;4961619;23;20051;-46
2023/06/10 03:03:40;;;;;;;24.10;11.50;;;;;;;15.84;77.55;100588.25;4950165;29;20066;-45
2023/06/10 03:06:12;;;;;;;22.08;11.95;;;;;;;15.83;77.46;100589.47;4955630;29;20138;-45
2023/06/10 03:08:43;;;;;;;21.42;11.80;;;;;;;15.82;77.51;100594.22;4919649;29;20060;-44
2023/06/10 03:11:10;;;;;;;25.52;11.35;;;;;;;15.83;77.63;100581.84;4942040;29;20074;-44
2023/06/10 03:13:39;;;;;;;24.35;12.63;;;;;;;15.82;77.87;100582.25;4935292;29;20051;-46
2023/06/10 03:16:07;;;;;;;18.45;10.63;;;;;;;15.80;77.88;100587.44;4936472;29;20040;-44
2023/06/10 03:18:34;;;;;;;24.95;11.48;;;;;;;15.80;78.08;100581.84;4935508;29;20150;-46
2023/06/10 03:21:02;;;;;;;16.45;10.30;;;;;;;15.79;78.06;100592.19;4924196;29;20074;-45
2023/06/10 03:23:29;;;;;;;21.30;10.50;;;;;;;15.76;78.11;100594.94;4949867;29;20058;-44
2023/06/10 03:25:56;;;;;;;20.85;9.55;;;;;;;15.77;78.31;100588.19;4944756;29;20405;-44
2023/06/10 03:28:23;;;;;;;24.83;10.43;;;;;;;15.78;78.36;100587.00;4936911;29;20075;-44
2023/06/10 03:30:51;;;;;;;21.67;10.07;;;;;;;15.78;78.43;100581.41;4942926;29;20106;-45
2023/06/10 03:33:18;;;;;;;27.90;11.35;;;;;;;15.78;78.46;100581.41;4954674;29;20770;-45
2023/06/10 03:35:45;;;;;;;29.63;10.55;;;;;;;15.78;78.47;100584.19;4949512;29;20051;-46
2023/06/10 03:38:12;;;;;;;24.98;11.93;;;;;;;15.74;78.56;100586.97;4947499;29;20062;-44
2023/06/10 03:40:38;;;;;;;21.63;9.40;;;;;;;15.74;78.67;100588.97;4953449;29;20051;-46
2023/06/10 03:43:05;;;;;;;24.40;9.63;;;;;;;15.74;78.49;100586.16;4942120;29;20554;-45
2023/06/10 03:45:32;;;;;;;22.83;10.93;;;;;;;15.72;78.76;100585.75;4943752;29;20107;-45
2023/06/10 03:48:01;;;;;;;24.40;12.27;;;;;;;15.70;78.72;100582.56;4949490;29;20510;-46
2023/06/10 03:50:29;;;;;;;21.05;10.52;;;;;;;15.69;79.05;100586.53;4954949;29;20055;-45
2023/06/10 03:52:57;;;;;;;22.23;10.35;;;;;;;15.68;79.04;100584.91;4955084;29;20094;-45
2023/06/10 03:55:24;;;;;;;21.60;10.13;;;;;;;15.71;79.10;100586.94;4954788;29;20058;-46
2023/06/10 03:57:51;;;;;;;23.48;9.93;;;;;;;15.71;79.09;100592.50;4935584;29;20051;-45
2023/06/10 04:00:21;;;;;;;20.77;10.00;;;;;;;15.69;79.06;100587.31;4947001;29;20144;-44
2023/06/10 04:02:51;;;;;;;17.75;10.05;;;;;;;15.70;79.10;100585.34;4917572;29;20065;-45
2023/06/10 04:05:22;;;;;;;21.50;11.27;;;;;;;15.68;79.31;100584.91;4950293;29;20047;-44
2023/06/10 04:07:49;;;;;;;23.60;11.18;;;;;;;15.66;79.41;100592.88;4938896;29;20047;-44
2023/06/10 04:10:17;;;;;;;18.52;9.75;;;;;;;15.67;79.51;100583.31;4930975;29;20549;-47
2023/06/10 04:12:44;;;;;;;26.85;10.50;;;;;;;15.69;79.47;100569.78;4935627;29;20062;-44
2023/06/10 04:15:12;;;;;;;20.85;9.93;;;;;;;15.66;79.37;100571.34;4942882;29;20047;-45
2023/06/10 04:17:39;;;;;;;21.98;10.38;;;;;;;15.64;79.71;100575.69;4933337;29;20506;-45
2023/06/10 04:20:07;;;;;;;21.45;10.27;;;;;;;15.61;79.71;100573.69;4937596;29;20048;-46
2023/06/10 04:22:34;;;;;;;24.70;8.85;;;;;;;15.64;79.99;100575.69;4942410;29;20062;-46
2023/06/10 04:25:02;;;;;;;20.52;10.20;;;;;;;15.66;79.87;100567.75;4916784;29;20040;-48
2023/06/10 04:27:30;;;;;;;23.90;9.05;;;;;;;15.65;79.96;100569.72;4935498;29;20512;-45
2023/06/10 04:29:57;;;;;;;23.23;9.32;;;;;;;15.64;80.07;100573.72;4934245;29;20047;-44
2023/06/10 04:32:23;;;;;;;18.00;9.00;;;;;;;15.65;80.10;100566.13;4940140;29;20051;-44
2023/06/10 04:34:50;;;;;;;22.38;9.23;;;;;;;15.67;80.09;100563.78;4941296;29;20046;-46
2023/06/10 04:37:18;;;;;;;21.98;10.68;;;;;;;15.65;80.10;100564.16;4934438;29;20047;-47
2023/06/10 04:39:44;;;;;;;22.30;8.70;;;;;;;15.67;80.31;100567.34;4947250;29;20055;-45
2023/06/10 04:42:11;;;;;;;19.52;9.75;;;;;;;15.66;80.44;100565.75;4953594;29;20050;-44
2023/06/10 04:44:38;;;;;;;18.90;9.30;;;;;;;15.66;80.41;100570.53;4953930;29;20063;-45
2023/06/10 04:47:07;;;;;;;25.70;9.82;;;;;;;15.65;80.61;100571.72;4953994;29;20035;-45
2023/06/10 04:49:35;;;;;;;23.38;8.82;;;;;;;15.64;80.78;100578.50;4924381;29;20055;-44
2023/06/10 04:52:04;;;;;;;22.60;10.00;;;;;;;15.67;80.65;100577.72;4917673;29;20079;-44
2023/06/10 04:54:31;;;;;;;22.35;8.80;;;;;;;15.67;80.60;100572.94;4948881;29;20055;-45
2023/06/10 04:56:58;;;;;;;21.10;8.98;;;;;;;15.70;80.79;100565.81;4953797;29;20083;-44
2023/06/10 04:59:25;;;;;;;16.88;9.98;;;;;;;15.73;80.73;100570.59;4940850;29;20090;-44
2023/06/10 05:01:52;;;;;;;24.92;10.55;;;;;;;15.74;80.82;100572.22;4944221;29;20573;-45
2023/06/10 05:04:18;;;;;;;17.67;9.55;;;;;;;15.77;80.78;100571.44;4938896;29;20705;-44
2023/06/10 05:06:45;;;;;;;24.15;8.80;;;;;;;15.78;80.83;100567.44;4944744;29;20071;-45
2023/06/10 05:09:12;;;;;;;21.83;9.13;;;;;;;15.78;80.92;100570.25;4921243;29;20450;-46
2023/06/10 05:11:39;;;;;;;21.40;8.73;;;;;;;15.79;80.83;100575.47;4942097;29;20048;-45
2023/06/10 05:14:06;;;;;;;17.92;8.88;;;;;;;15.82;80.79;100574.69;4934202;29;20035;-44
2023/06/10 05:16:33;;;;;;;18.75;8.95;;;;;;;15.86;80.90;100580.28;4941799;29;20051;-44
2023/06/10 05:19:01;;;;;;;20.00;8.85;;;;;;;15.86;80.95;100576.72;4942177;29;20089;-47
2023/06/10 05:21:30;;;;;;;26.23;10.82;;;;;;;15.88;80.92;100575.16;4938230;29;20094;-45
2023/06/10 05:23:56;;;;;;;21.90;10.00;;;;;;;15.91;80.85;100582.75;4941588;29;20398;-44
2023/06/10 05:26:25;;;;;;;22.20;8.52;;;;;;;15.93;80.91;100580.38;4937633;29;20134;-46
2023/06/10 05:28:52;;;;;;;22.70;9.45;;;;;;;15.96;80.86;100570.41;4931831;29;20044;-47
2023/06/10 05:31:19;;;;;;;19.75;8.65;;;;;;;15.93;80.93;100574.78;4929673;29;20071;-45
2023/06/10 05:33:46;;;;;;;21.83;8.73;;;;;;;15.90;80.87;100569.97;4951171;29;20039;-45
2023/06/10 05:36:13;;;;;;;20.98;9.15;;;;;;;15.92;81.06;100587.13;4948099;29;20397;-45
2023/06/10 05:38:40;;;;;;;19.30;10.57;;;;;;;15.95;80.79;100583.56;4946639;29;20143;-45
2023/06/10 05:41:06;;;;;;;21.63;10.82;;;;;;;16.00;81.03;100586.00;4940160;29;20498;-45
2023/06/10 05:43:33;;;;;;;26.95;8.73;;;;;;;16.02;80.85;100583.63;4945164;29;20050;-46
2023/06/10 05:46:00;;;;;;;19.20;8.95;;;;;;;16.01;80.88;100576.47;4952974;29;20054;-47
2023/06/10 05:48:27;;;;;;;21.90;8.68;;;;;;;16.02;80.85;100583.63;4947895;29;20063;-45
2023/06/10 05:50:54;;;;;;;21.08;9.38;;;;;;;16.06;80.78;100578.09;4946216;29;20052;-44
2023/06/10 05:53:21;;;;;;;23.13;9.85;;;;;;;16.09;80.70;100577.31;4952652;29;20058;-45
2023/06/10 05:55:48;;;;;;;19.92;7.88;;;;;;;16.08;80.67;100582.09;4952818;29;20430;-45
2023/06/10 05:58:15;;;;;;;21.70;8.80;;;;;;;16.09;80.58;100572.53;4920679;29;20070;-45
2023/06/10 06:00:42;;;;;;;24.50;9.13;;;;;;;16.11;80.39;100580.53;4933591;29;20062;-45
2023/06/10 06:03:09;;;;;;;20.83;9.48;;;;;;;16.11;80.62;100583.31;4941410;29;20510;-44
2023/06/10 06:05:38;;;;;;;24.38;9.60;;;;;;;16.13;80.55;100578.94;4931269;29;20139;-45
2023/06/10 06:08:05;;;;;;;18.83;7.85;;;;;;;16.16;80.43;100578.16;4938106;29;20449;-45
2023/06/10 06:10:33;;;;;;;21.83;8.23;;;;;;;16.16;80.32;100580.16;4931297;29;20490;-45
2023/06/10 06:13:00;;;;;;;17.52;8.65;;;;;;;16.15;80.50;100589.75;4908745;29;20466;-44
2023/06/10 06:15:27;;;;;;;36.72;11.23;;;;;;;16.20;80.51;100581.00;4930820;29;20051;-45
2023/06/10 06:17:55;;;;;;;17.77;8.55;;;;;;;16.27;80.66;100578.25;4932319;29;20059;-46
2023/06/10 06:20:22;;;;;;;22.50;8.93;;;;;;;16.32;80.53;100584.28;4913357;29;20118;-45
2023/06/10 06:22:49;;;;;;;26.05;9.15;;;;;;;16.36;80.24;100582.31;4940747;29;20043;-49
2023/06/10 06:25:16;;;;;;;16.55;8.82;;;;;;;16.41;80.15;100581.94;4952390;29;20047;-45
2023/06/10 06:27:46;;;;;;;25.45;8.45;;;;;;;16.48;80.15;100584.00;4952574;29;20458;-45
2023/06/10 06:30:13;;;;;;;16.92;9.70;;;;;;;16.61;80.09;100587.28;4950408;29;20059;-45
2023/06/10 06:32:39;;;;;;;19.60;8.48;;;;;;;16.69;79.78;100586.97;4951249;29;20043;-48
2023/06/10 06:35:07;;;;;;;26.20;9.23;;;;;;;16.75;79.76;100590.19;4933700;29;20048;-44
2023/06/10 06:37:36;;;;;;;23.60;9.65;;;;;;;16.79;79.57;100585.41;4935259;29;20066;-45
2023/06/10 06:40:03;;;;;;;21.95;9.82;;;;;;;16.82;79.51;100588.22;4939713;29;20409;-45
2023/06/10 06:42:30;;;;;;;23.65;10.57;;;;;;;16.82;79.38;100596.63;4952543;29;20055;-45
2023/06/10 06:44:57;;;;;;;18.95;8.98;;;;;;;16.78;79.19;100598.59;4952301;29;20078;-46
2023/06/10 06:47:24;;;;;;;23.30;9.18;;;;;;;16.73;79.17;100590.56;4952346;29;20059;-45
2023/06/10 06:49:51;;;;;;;23.40;8.88;;;;;;;16.65;79.14;100588.13;4942492;29;20039;-44
2023/06/10 06:52:19;;;;;;;22.30;9.32;;;;;;;16.65;79.07;100588.13;4944842;29;20051;-45
2023/06/10 06:54:45;;;;;;;23.52;9.25;;;;;;;16.67;79.29;100591.34;4954297;28;20562;-45
2023/06/10 06:57:12;;;;;;;19.50;9.02;;;;;;;16.74;79.24;100585.78;4955556;29;20047;-45
2023/06/10 06:59:39;;;;;;;18.70;8.80;;;;;;;16.74;79.03;100596.97;4946456;29;20134;-45
2023/06/10 07:02:07;;;;;;;22.02;9.02;;;;;;;16.74;78.74;100596.97;4946812;29;20063;-45
2023/06/10 07:04:33;;;;;;;18.80;8.95;;;;;;;16.79;79.13;100596.59;4955565;29;20557;-44
2023/06/10 07:07:00;;;;;;;18.40;8.80;;;;;;;16.84;78.79;100599.00;4951473;29;20133;-45
2023/06/10 07:09:28;;;;;;;16.92;9.25;;;;;;;16.92;78.79;100603.44;4945456;29;21910;-43
2023/06/10 07:11:54;;;;;;;21.75;10.98;;;;;;;17.00;78.75;100605.09;4947741;29;20051;-43
2023/06/10 07:14:21;;;;;;;23.50;9.02;;;;;;;17.07;78.69;100607.13;4955365;29;20047;-44
2023/06/10 07:16:49;;;;;;;29.52;8.95;;;;;;;17.18;78.94;100606.00;4955386;29;20059;-44
2023/06/10 07:19:16;;;;;;;21.27;8.27;;;;;;;17.37;79.14;100605.66;4954237;29;20043;-45
2023/06/10 07:21:43;;;;;;;24.75;9.77;;;;;;;17.54;79.44;100618.94;4955318;29;20055;-43
2023/06/10 07:24:10;;;;;;;21.83;9.20;;;;;;;17.66;79.33;100614.97;4946389;29;20043;-44
2023/06/10 07:26:37;;;;;;;30.85;10.90;;;;;;;17.78;79.09;100616.59;4948465;29;20598;-43
2023/06/10 07:29:03;;;;;;;19.73;8.95;;;;;;;17.88;79.10;100625.03;4950110;29;20059;-45
2023/06/10 07:31:30;;;;;;;20.20;8.48;;;;;;;17.92;78.54;100623.06;4948686;29;20406;-44
2023/06/10 07:33:57;;;;;;;25.55;11.23;;;;;;;18.03;78.02;100620.25;4929656;29;20043;-44
2023/06/10 07:36:27;;;;;;;21.52;8.73;;;;;;;18.13;77.74;100627.88;4949736;29;20051;-44
2023/06/10 07:38:54;;;;;;;20.10;7.90;;;;;;;18.24;77.44;100632.25;4925726;29;21204;-47
2023/06/10 07:41:25;;;;;;;26.95;9.63;;;;;;;18.39;77.12;100624.69;4935784;29;20047;-44
2023/06/10 07:43:54;;;;;;;22.73;7.95;;;;;;;18.67;77.60;100623.88;4929402;29;20047;-44
2023/06/10 07:46:22;;;;;;;23.20;10.68;;;;;;;19.16;77.82;100622.94;4940673;29;20106;-44
2023/06/10 07:48:49;;;;;;;20.88;8.60;;;;;;;19.65;77.51;100628.38;4955095;29;20047;-44
2023/06/10 07:51:16;;;;;;;25.90;9.55;;;;;;;19.94;76.17;100627.00;4947288;29;20043;-44
2023/06/10 07:53:43;;;;;;;21.63;9.35;;;;;;;19.94;75.23;100629.81;4937343;29;20197;-44
2023/06/10 07:56:11;;;;;;;16.23;7.57;;;;;;;19.95;74.19;100628.59;4932163;29;20103;-44
2023/06/10 07:58:38;;;;;;;17.27;8.30;;;;;;;20.07;73.74;100638.53;4932090;29;20095;-44
2023/06/10 08:01:05;;;;;;;16.30;8.50;;;;;;;20.20;72.77;100634.03;4941281;29;20054;-45
2023/06/10 08:03:32;;;;;;;21.40;8.85;;;;;;;20.22;72.06;100644.88;4939548;29;20040;-43
2023/06/10 08:05:59;;;;;;;20.23;8.27;;;;;;;20.54;70.92;100632.16;4935062;29;20067;-45
2023/06/10 08:08:26;;;;;;;16.92;8.95;;;;;;;20.62;69.35;100627.28;4944887;29;20106;-47
2023/06/10 08:10:52;;;;;;;15.43;6.85;;;;;;;20.49;68.50;100634.66;4932834;29;20075;-46
2023/06/10 08:13:19;;;;;;;17.80;8.00;;;;;;;20.44;68.17;100632.25;4935436;29;20111;-46
2023/06/10 08:15:50;;;;;;;19.88;8.18;;;;;;;20.41;67.61;100638.72;4936935;29;20043;-46
2023/06/10 08:18:17;;;;;;;23.25;8.02;;;;;;;20.37;67.51;100638.75;4954120;29;20095;-44
2023/06/10 08:20:44;;;;;;;20.65;8.43;;;;;;;20.34;67.51;100635.97;4934436;29;20043;-45
2023/06/10 08:23:11;;;;;;;17.10;7.38;;;;;;;20.30;67.07;100633.19;4941841;29;20050;-44
2023/06/10 08:25:37;;;;;;;22.42;8.73;;;;;;;20.23;66.66;100629.59;4951373;29;20047;-43
2023/06/10 08:28:04;;;;;;;25.48;10.48;;;;;;;20.12;66.77;100635.28;4954113;29;20110;-46
2023/06/10 08:30:31;;;;;;;15.93;8.25;;;;;;;19.97;66.40;100626.16;4952997;29;20047;-44
2023/06/10 08:32:58;;;;;;;18.80;8.32;;;;;;;19.82;66.44;100633.09;4935875;29;20047;-42
2023/06/10 08:35:24;;;;;;;22.38;8.60;;;;;;;19.66;66.70;100632.78;4935007;29;20055;-46
2023/06/10 08:37:51;;;;;;;19.08;7.82;;;;;;;19.52;66.98;100629.25;4952728;29;20079;-44
2023/06/10 08:40:18;;;;;;;23.60;9.00;;;;;;;19.45;66.96;100630.09;4951951;29;20043;-45
2023/06/10 08:42:51;;;;;;;23.13;9.40;;;;;;;19.48;66.74;100623.66;4901101;29;20060;-45
2023/06/10 08:45:18;;;;;;;20.20;8.55;;;;;;;19.62;66.85;100634.81;4900203;29;20517;-47
2023/06/10 08:47:50;;;;;;;20.08;8.18;;;;;;;19.88;66.53;100631.44;4900075;29;20866;-45
2023/06/10 08:50:18;;;;;;;22.23;11.45;;;;;;;20.00;66.15;100630.16;4900898;29;22293;-44
2023/06/10 08:52:48;;;;;;;19.80;9.00;;;;;;;20.01;65.86;100626.94;4899893;29;20513;-44
2023/06/10 08:55:22;;;;;;;17.58;8.45;;;;;;;19.92;66.02;100632.22;4900546;29;20702;-46
2023/06/10 08:57:49;;;;;;;23.92;9.02;;;;;;;19.85;66.07;100637.91;4889734;29;20492;-45
2023/06/10 09:00:18;;;;;;;22.38;9.13;;;;;;;19.92;66.42;100637.03;4900182;29;20055;-46
2023/06/10 09:02:46;;;;;;;25.23;10.27;;;;;;;19.95;65.95;100637.03;4900530;29;20774;-48
2023/06/10 09:05:13;;;;;;;20.88;9.05;;;;;;;19.88;65.99;100637.06;4899683;29;20146;-44
2023/06/10 09:07:44;;;;;;;19.52;9.02;;;;;;;19.82;66.27;100635.91;4899445;29;20094;-44
2023/06/10 09:10:11;;;;;;;23.95;8.00;;;;;;;19.75;66.30;100638.75;4900163;29;20044;-44
2023/06/10 09:12:38;;;;;;;24.00;10.27;;;;;;;19.73;66.46;100643.16;4899834;29;20146;-40
2023/06/10 09:15:07;;;;;;;18.80;8.50;;;;;;;19.77;66.43;100641.97;4900505;29;20059;-47
2023/06/10 09:17:36;;;;;;;16.92;8.60;;;;;;;19.80;66.19;100638.31;4899584;29;20048;-44
2023/06/10 09:20:03;;;;;;;21.23;9.02;;;;;;;19.92;66.50;100637.03;4899143;29;20653;-47
2023/06/10 09:22:30;;;;;;;16.70;8.93;;;;;;;19.93;65.82;100635.84;4899795;29;20051;-47
2023/06/10 09:25:10;;;;;;;19.50;8.63;;;;;;;19.93;66.02;100639.47;4898169;29;20948;-47
2023/06/10 09:27:53;;;;;;;21.83;8.65;;;;;;;19.99;65.81;100634.97;4899239;29;20044;-47
2023/06/10 09:30:34;;;;;;;22.13;9.70;;;;;;;20.04;65.89;100628.16;4919242;29;20043;-47
2023/06/10 09:33:09;;;;;;;21.75;8.70;;;;;;;20.09;65.47;100622.09;4950831;29;20055;-47
2023/06/10 09:35:36;;;;;;;19.38;8.23;;;;;;;20.26;65.34;100638.03;4932702;29;20054;-46
2023/06/10 09:38:03;;;;;;;21.67;9.70;;;;;;;20.48;64.75;100638.66;4938772;29;20055;-44
2023/06/10 09:40:29;;;;;;;20.60;7.75;;;;;;;20.77;64.09;100653.25;4926231;29;20051;-44
2023/06/10 09:42:58;;;;;;;20.10;9.55;;;;;;;20.82;63.92;100647.19;4952839;29;20141;-44
2023/06/10 09:45:32;;;;;;;21.30;8.43;;;;;;;20.95;64.44;100648.25;4953064;29;20090;-45
2023/06/10 09:48:00;;;;;;;28.27;9.45;;;;;;;20.99;63.34;100644.22;4952896;29;20079;-47
2023/06/10 09:50:27;;;;;;;25.08;8.15;;;;;;;20.82;63.72;100645.16;4929043;29;20059;-47
2023/06/10 09:52:56;;;;;;;22.13;8.63;;;;;;;20.69;63.60;100646.91;4950708;29;20060;-47
2023/06/10 09:55:23;;;;;;;23.52;9.63;;;;;;;20.56;63.72;100645.81;4952510;29;20561;-47
2023/06/10 09:57:53;;;;;;;20.73;8.85;;;;;;;20.55;64.11;100642.22;4949416;29;20048;-46
2023/06/10 10:00:22;;;;;;;19.83;9.93;;;;;;;20.78;63.81;100643.63;4953005;29;20043;-44
2023/06/10 10:02:51;;;;;;;19.67;9.68;;;;;;;20.87;63.44;100646.72;4950674;29;20051;-44
2023/06/10 10:05:22;;;;;;;17.40;9.00;;;;;;;20.77;63.71;100642.81;4943446;29;20094;-45
2023/06/10 10:07:49;;;;;;;25.25;10.45;;;;;;;20.73;63.83;100638.44;4952723;29;20051;-46
2023/06/10 10:10:19;;;;;;;21.10;9.23;;;;;;;20.87;63.38;100625.03;4953170;29;20054;-45
2023/06/10 10:12:47;;;;;;;29.05;9.68;;;;;;;21.06;63.10;100632.06;4949806;29;20051;-44
2023/06/10 10:15:17;;;;;;;19.88;8.35;;;;;;;21.03;62.90;100619.63;4944678;29;20414;-44
2023/06/10 10:18:00;;;;;;;18.95;8.82;;;;;;;20.87;62.75;100619.38;4952924;29;20058;-46
2023/06/10 10:20:33;;;;;;;25.02;9.32;;;;;;;20.70;63.22;100623.19;4941683;29;20055;-44
2023/06/10 10:23:03;;;;;;;23.58;10.35;;;;;;;20.52;63.33;100617.72;4952800;29;20051;-44
2023/06/10 10:25:35;;;;;;;17.75;8.75;;;;;;;20.31;63.80;100617.09;4952516;29;20152;-44
2023/06/10 10:28:09;;;;;;;22.15;10.18;;;;;;;20.18;64.10;100611.16;4953016;28;20047;-44
2023/06/10 10:30:42;;;;;;;20.42;10.45;;;;;;;20.07;63.91;100604.03;4951589;29;20087;-46
2023/06/10 10:33:22;;;;;;;20.70;10.07;;;;;;;20.01;64.33;100609.28;4956578;29;20474;-46
2023/06/10 10:35:50;;;;;;;23.38;11.52;;;;;;;20.00;64.65;100600.06;4939062;29;20043;-45
2023/06/10 10:38:18;;;;;;;27.25;11.27;;;;;;;19.99;64.59;100592.03;4949040;29;20545;-45
2023/06/10 10:40:46;;;;;;;22.50;10.98;;;;;;;19.95;64.76;100589.25;4954109;29;20050;-46
2023/06/10 10:43:15;;;;;;;21.95;9.95;;;;;;;19.90;64.47;100583.28;4955602;29;20051;-45
2023/06/10 10:45:42;;;;;;;24.52;10.90;;;;;;;19.85;64.56;100584.53;4956255;29;20409;-45
2023/06/10 10:48:12;;;;;;;18.08;8.98;;;;;;;19.84;64.61;100591.34;4944576;29;20532;-46
2023/06/10 10:50:40;;;;;;;19.25;9.20;;;;;;;19.92;64.52;100580.84;4955868;29;20043;-46
2023/06/10 10:53:08;;;;;;;19.75;10.45;;;;;;;20.09;64.45;100584.75;4953277;29;20437;-46
2023/06/10 10:55:35;;;;;;;20.40;11.45;;;;;;;20.33;64.09;100581.72;4942442;29;20134;-45
2023/06/10 10:58:07;;;;;;;22.13;10.68;;;;;;;20.56;63.44;100581.13;4943187;29;20106;-47
2023/06/10 11:00:36;;;;;;;23.52;10.05;;;;;;;20.76;63.35;100590.56;4944404;29;20043;-47
2023/06/10 11:03:02;;;;;;;23.58;10.80;;;;;;;20.97;63.17;100578.28;4954079;29;20051;-46
2023/06/10 11:06:11;;;;;;;17.23;9.10;;;;;;;21.13;62.91;100587.75;4950503;29;20122;-47
2023/06/10 11:08:41;;;;;;;16.48;8.65;;;;;;;21.19;63.13;100577.63;4938973;29;20402;-47
2023/06/10 11:11:23;;;;;;;16.75;8.70;;;;;;;21.22;62.61;100590.06;4955132;29;20422;-47
2023/06/10 11:14:09;;;;;;;21.85;10.15;;;;;;;21.17;62.53;100582.88;4955040;29;20047;-44
2023/06/10 11:16:44;;;;;;;22.58;10.15;;;;;;;21.19;62.74;100590.91;4951831;29;20461;-44
2023/06/10 11:19:38;;;;;;;18.65;9.77;;;;;;;21.24;62.84;100593.25;4953212;29;20118;-42